Low Land 5 — WDG8156 — position and weather

sailwx.info

Track history (hours):
 
Tides and Currents Weather Stations Pressure Air Temp Water Temp Dewpoint Dewpoint Depression Visibility Wind Speed Wind Dir Waves Ship Positions

Low Land 5

Owner: LOW LAND CONSTRUCTION CO. INC, THIBODAUX, LA. More information available from US FCC via Universal Licensing System and Coast Guard Vessel Documentation Center.

Last reported at 2018-Jun-21 16:31 UTC. Time now 2018-Jun-21 16:29 UTC.
Position N 29°44' W 092°22'.

Length 14 m.

Type: Tug. MMSI: 366842360.

Date/timePositionNaut miles runAvg speedWind from/ knotsBaromVisibWave heightAir tempDewpointWater temp
2018-Jun-21 16:31N 29°44' W 092°22'2 4.0
2018-Jun-21 16:01N 29°45' W 092°20'3 6.0
2018-Jun-21 15:30N 29°45' W 092°16'2 4.7
2018-Jun-21 15:00N 29°48' W 092°15'2 4.1
2018-Jun-21 14:30N 29°47' W 092°13'1 2.9
2018-Jun-21 14:01N 29°47' W 092°12'0 0.7
2018-Jun-21 13:31N 29°47' W 092°11'2 4.1
2018-Jun-21 13:00N 29°47' W 092°09'3 5.8
2018-Jun-21 12:31N 29°48' W 092°06'3 6.7
2018-Jun-21 12:00N 29°49' W 092°02'3 7.0
2018-Jun-21 11:31N 29°50' W 091°58'62 5.5
2018-Jun-21 00:14N 29°32' W 090°50'2 7.5
2018-Jun-21 00:00N 29°32' W 090°48'3 6.3
2018-Jun-20 23:31N 29°33' W 090°45'3 5.3
2018-Jun-20 23:00N 29°35' W 090°43'2 3.7
2018-Jun-20 22:30N 29°36' W 090°41'1 0.5
2018-Jun-20 19:51N 29°36' W 090°40'0 0.1
2018-Jun-20 19:30N 29°36' W 090°40'0 0.0
2018-Jun-20 19:00N 29°36' W 090°40'0 0.8
2018-Jun-20 18:30N 29°36' W 090°39'3 6.6
2018-Jun-20 18:00N 29°35' W 090°36'4 7.0
2018-Jun-20 17:30N 29°34' W 090°32'4 7.5
2018-Jun-20 16:55N 29°33' W 090°27'2 0.1
2018-Jun-19 10:20N 29°34' W 090°29'2 6.8
2018-Jun-19 10:00N 29°34' W 090°32'3 6.5
2018-Jun-19 09:30N 29°35' W 090°36'3 5.9
2018-Jun-19 08:59N 29°36' W 090°39'1 1.5
2018-Jun-19 08:30N 29°36' W 090°40'0 0.0
2018-Jun-19 07:59N 29°36' W 090°40'0 0.0
2018-Jun-19 07:29N 29°36' W 090°40'0 0.0
2018-Jun-19 07:00N 29°36' W 090°40'0 0.0
2018-Jun-19 06:30N 29°36' W 090°40'0 0.0
2018-Jun-19 06:00N 29°36' W 090°40'0 0.0
2018-Jun-19 05:30N 29°36' W 090°40'0 0.0
2018-Jun-19 05:00N 29°36' W 090°40'0 0.1
2018-Jun-19 04:30N 29°36' W 090°40'0 0.4
2018-Jun-19 03:59N 29°36' W 090°40'0 0.0
2018-Jun-19 03:28N 29°36' W 090°40'0 0.0
2018-Jun-19 02:59N 29°36' W 090°40'0 0.0
2018-Jun-19 02:30N 29°36' W 090°40'0 0.0
2018-Jun-19 02:00N 29°36' W 090°40'0 0.0
2018-Jun-19 01:30N 29°36' W 090°40'0 0.0
2018-Jun-19 00:59N 29°36' W 090°40'0 0.0
2018-Jun-19 00:30N 29°36' W 090°40'0 0.0
2018-Jun-19 00:00N 29°36' W 090°40'0 0.0
2018-Jun-18 23:30N 29°36' W 090°40'0 0.0
2018-Jun-18 23:00N 29°36' W 090°40'0 0.0
2018-Jun-18 22:30N 29°36' W 090°40'0 0.0
2018-Jun-18 21:53N 29°36' W 090°40'0 0.0
2018-Jun-18 21:30N 29°36' W 090°40'0 0.0
2018-Jun-18 20:57N 29°36' W 090°40'0 0.0
2018-Jun-18 20:30N 29°36' W 090°40'  
Track history (hours):
 
Tides and Currents Weather Stations Pressure Air Temp Water Temp Dewpoint Dewpoint Depression Visibility Wind Speed Wind Dir Waves Ship Positions

Low Land 5

Owner: LOW LAND CONSTRUCTION CO. INC, THIBODAUX, LA. More information available from US FCC via Universal Licensing System and Coast Guard Vessel Documentation Center.

Last reported at 2018-Jun-21 16:31 UTC. Time now 2018-Jun-21 16:29 UTC.
Position N 29°44' W 092°22'.

Length 14 m.

Type: Tug. MMSI: 366842360.

Date/timePositionNaut miles runAvg speedWind from/ knotsBaromVisibWave heightAir tempDewpointWater temp
2018-Jun-21 16:31N 29°44' W 092°22'2 4.0
2018-Jun-21 16:01N 29°45' W 092°20'3 6.0
2018-Jun-21 15:30N 29°45' W 092°16'2 4.7
2018-Jun-21 15:00N 29°48' W 092°15'2 4.1
2018-Jun-21 14:30N 29°47' W 092°13'1 2.9
2018-Jun-21 14:01N 29°47' W 092°12'0 0.7
2018-Jun-21 13:31N 29°47' W 092°11'2 4.1
2018-Jun-21 13:00N 29°47' W 092°09'3 5.8
2018-Jun-21 12:31N 29°48' W 092°06'3 6.7
2018-Jun-21 12:00N 29°49' W 092°02'3 7.0
2018-Jun-21 11:31N 29°50' W 091°58'62 5.5
2018-Jun-21 00:14N 29°32' W 090°50'2 7.5
2018-Jun-21 00:00N 29°32' W 090°48'3 6.3
2018-Jun-20 23:31N 29°33' W 090°45'3 5.3
2018-Jun-20 23:00N 29°35' W 090°43'2 3.7
2018-Jun-20 22:30N 29°36' W 090°41'1 0.5
2018-Jun-20 19:51N 29°36' W 090°40'0 0.1
2018-Jun-20 19:30N 29°36' W 090°40'0 0.0
2018-Jun-20 19:00N 29°36' W 090°40'0 0.8
2018-Jun-20 18:30N 29°36' W 090°39'3 6.6
2018-Jun-20 18:00N 29°35' W 090°36'4 7.0
2018-Jun-20 17:30N 29°34' W 090°32'4 7.5
2018-Jun-20 16:55N 29°33' W 090°27'2 0.1
2018-Jun-19 10:20N 29°34' W 090°29'2 6.8
2018-Jun-19 10:00N 29°34' W 090°32'3 6.5
2018-Jun-19 09:30N 29°35' W 090°36'3 5.9
2018-Jun-19 08:59N 29°36' W 090°39'1 1.5
2018-Jun-19 08:30N 29°36' W 090°40'0 0.0
2018-Jun-19 07:59N 29°36' W 090°40'0 0.0
2018-Jun-19 07:29N 29°36' W 090°40'0 0.0
2018-Jun-19 07:00N 29°36' W 090°40'0 0.0
2018-Jun-19 06:30N 29°36' W 090°40'0 0.0
2018-Jun-19 06:00N 29°36' W 090°40'0 0.0
2018-Jun-19 05:30N 29°36' W 090°40'0 0.0
2018-Jun-19 05:00N 29°36' W 090°40'0 0.1
2018-Jun-19 04:30N 29°36' W 090°40'0 0.4
2018-Jun-19 03:59N 29°36' W 090°40'0 0.0
2018-Jun-19 03:28N 29°36' W 090°40'0 0.0
2018-Jun-19 02:59N 29°36' W 090°40'0 0.0
2018-Jun-19 02:30N 29°36' W 090°40'0 0.0
2018-Jun-19 02:00N 29°36' W 090°40'0 0.0
2018-Jun-19 01:30N 29°36' W 090°40'0 0.0
2018-Jun-19 00:59N 29°36' W 090°40'0 0.0
2018-Jun-19 00:30N 29°36' W 090°40'0 0.0
2018-Jun-19 00:00N 29°36' W 090°40'0 0.0
2018-Jun-18 23:30N 29°36' W 090°40'0 0.0
2018-Jun-18 23:00N 29°36' W 090°40'0 0.0
2018-Jun-18 22:30N 29°36' W 090°40'0 0.0
2018-Jun-18 21:53N 29°36' W 090°40'0 0.0
2018-Jun-18 21:30N 29°36' W 090°40'0 0.0
2018-Jun-18 20:57N 29°36' W 090°40'0 0.0
2018-Jun-18 20:30N 29°36' W 090°40'  

Dump ship's entire track history